sensor_id;sensor_type;location;lat;lon;timestamp;temperature;humidity
26964;DHT22;14521;48.148;-1.656;2022-08-06T00:01:54;26.30;66.70
26964;DHT22;14521;48.148;-1.656;2022-08-06T00:05:16;26.30;66.80
26964;DHT22;14521;48.148;-1.656;2022-08-06T00:08:56;26.30;66.80
26964;DHT22;14521;48.148;-1.656;2022-08-06T00:12:18;26.20;66.60
26964;DHT22;14521;48.148;-1.656;2022-08-06T00:15:41;26.30;66.80
26964;DHT22;14521;48.148;-1.656;2022-08-06T00:19:24;26.20;66.60
26964;DHT22;14521;48.148;-1.656;2022-08-06T00:23:07;26.20;66.60
26964;DHT22;14521;48.148;-1.656;2022-08-06T00:26:38;26.20;66.80
26964;DHT22;14521;48.148;-1.656;2022-08-06T00:30:00;26.20;66.60
26964;DHT22;14521;48.148;-1.656;2022-08-06T00:33:27;26.20;66.60
26964;DHT22;14521;48.148;-1.656;2022-08-06T00:37:05;26.20;66.60
26964;DHT22;14521;48.148;-1.656;2022-08-06T00:40:40;26.20;66.40
26964;DHT22;14521;48.148;-1.656;2022-08-06T00:44:19;26.20;66.60
26964;DHT22;14521;48.148;-1.656;2022-08-06T00:47:52;26.20;66.60
26964;DHT22;14521;48.148;-1.656;2022-08-06T00:51:24;26.20;66.60
26964;DHT22;14521;48.148;-1.656;2022-08-06T00:55:07;26.20;66.50
26964;DHT22;14521;48.148;-1.656;2022-08-06T00:58:38;26.20;66.60
26964;DHT22;14521;48.148;-1.656;2022-08-06T01:02:03;26.10;66.40
26964;DHT22;14521;48.148;-1.656;2022-08-06T01:05:31;26.20;66.30
26964;DHT22;14521;48.148;-1.656;2022-08-06T01:09:13;26.10;66.40
26964;DHT22;14521;48.148;-1.656;2022-08-06T01:12:36;26.10;66.40
26964;DHT22;14521;48.148;-1.656;2022-08-06T01:31:29;26.10;65.90
26964;DHT22;14521;48.148;-1.656;2022-08-06T01:35:03;26.10;66.10
26964;DHT22;14521;48.148;-1.656;2022-08-06T01:38:42;26.10;66.10
26964;DHT22;14521;48.148;-1.656;2022-08-06T01:42:21;26.10;65.90
26964;DHT22;14521;48.148;-1.656;2022-08-06T01:45:57;26.10;65.90
26964;DHT22;14521;48.148;-1.656;2022-08-06T01:49:25;26.10;65.80
26964;DHT22;14521;48.148;-1.656;2022-08-06T01:53:13;26.10;65.80
26964;DHT22;14521;48.148;-1.656;2022-08-06T01:56:40;26.10;65.80
26964;DHT22;14521;48.148;-1.656;2022-08-06T02:00:20;26.00;65.70
26964;DHT22;14521;48.148;-1.656;2022-08-06T02:03:53;26.00;65.80
26964;DHT22;14521;48.148;-1.656;2022-08-06T02:07:25;26.00;65.80
26964;DHT22;14521;48.148;-1.656;2022-08-06T02:11:09;26.00;65.60
26964;DHT22;14521;48.148;-1.656;2022-08-06T02:15:06;26.00;65.30
26964;DHT22;14521;48.148;-1.656;2022-08-06T02:18:32;26.00;65.40
26964;DHT22;14521;48.148;-1.656;2022-08-06T02:21:59;26.00;65.40
26964;DHT22;14521;48.148;-1.656;2022-08-06T02:25:26;26.00;65.60
26964;DHT22;14521;48.148;-1.656;2022-08-06T02:28:53;26.10;65.50
26964;DHT22;14521;48.148;-1.656;2022-08-06T02:32:17;26.00;65.30
26964;DHT22;14521;48.148;-1.656;2022-08-06T02:35:47;26.00;65.10
26964;DHT22;14521;48.148;-1.656;2022-08-06T02:39:28;26.00;65.30
26964;DHT22;14521;48.148;-1.656;2022-08-06T02:43:22;26.00;65.10
26964;DHT22;14521;48.148;-1.656;2022-08-06T02:46:58;26.00;64.80
26964;DHT22;14521;48.148;-1.656;2022-08-06T02:50:29;25.90;65.00
26964;DHT22;14521;48.148;-1.656;2022-08-06T02:54:07;25.90;65.10
26964;DHT22;14521;48.148;-1.656;2022-08-06T02:57:37;25.90;65.10
26964;DHT22;14521;48.148;-1.656;2022-08-06T03:01:17;26.00;65.00
26964;DHT22;14521;48.148;-1.656;2022-08-06T03:04:47;25.90;64.90
26964;DHT22;14521;48.148;-1.656;2022-08-06T03:08:20;25.90;65.80
26964;DHT22;14521;48.148;-1.656;2022-08-06T03:11:49;25.90;64.90
26964;DHT22;14521;48.148;-1.656;2022-08-06T03:15:13;25.90;65.00
26964;DHT22;14521;48.148;-1.656;2022-08-06T03:18:57;25.90;64.80
26964;DHT22;14521;48.148;-1.656;2022-08-06T03:22:41;25.90;64.90
26964;DHT22;14521;48.148;-1.656;2022-08-06T03:26:06;25.90;64.70
26964;DHT22;14521;48.148;-1.656;2022-08-06T03:29:32;25.90;64.50
26964;DHT22;14521;48.148;-1.656;2022-08-06T03:32:56;25.90;64.80
26964;DHT22;14521;48.148;-1.656;2022-08-06T03:36:28;25.90;64.70
26964;DHT22;14521;48.148;-1.656;2022-08-06T03:39:50;25.90;64.50
26964;DHT22;14521;48.148;-1.656;2022-08-06T03:43:15;25.90;64.40
26964;DHT22;14521;48.148;-1.656;2022-08-06T03:47:18;25.90;64.70
26964;DHT22;14521;48.148;-1.656;2022-08-06T03:51:03;25.80;64.30
26964;DHT22;14521;48.148;-1.656;2022-08-06T03:54:36;25.90;64.40
26964;DHT22;14521;48.148;-1.656;2022-08-06T03:58:07;25.80;64.50
26964;DHT22;14521;48.148;-1.656;2022-08-06T04:01:34;25.80;64.40
26964;DHT22;14521;48.148;-1.656;2022-08-06T04:05:17;25.80;64.50
26964;DHT22;14521;48.148;-1.656;2022-08-06T04:08:44;25.90;64.40
26964;DHT22;14521;48.148;-1.656;2022-08-06T04:12:08;25.80;64.40
26964;DHT22;14521;48.148;-1.656;2022-08-06T04:15:52;25.80;64.20
26964;DHT22;14521;48.148;-1.656;2022-08-06T04:19:18;25.80;64.20
26964;DHT22;14521;48.148;-1.656;2022-08-06T04:22:53;25.80;64.20
26964;DHT22;14521;48.148;-1.656;2022-08-06T04:26:30;25.80;64.30
26964;DHT22;14521;48.148;-1.656;2022-08-06T04:29:55;25.80;64.40
26964;DHT22;14521;48.148;-1.656;2022-08-06T04:33:25;25.80;64.10
26964;DHT22;14521;48.148;-1.656;2022-08-06T04:36:59;25.80;64.20
26964;DHT22;14521;48.148;-1.656;2022-08-06T04:40:23;25.80;64.30
26964;DHT22;14521;48.148;-1.656;2022-08-06T04:43:56;25.80;64.20
26964;DHT22;14521;48.148;-1.656;2022-08-06T04:47:20;25.80;63.90
26964;DHT22;14521;48.148;-1.656;2022-08-06T04:50:44;25.80;64.20
26964;DHT22;14521;48.148;-1.656;2022-08-06T04:54:08;25.80;64.20
26964;DHT22;14521;48.148;-1.656;2022-08-06T04:57:34;25.80;64.20
26964;DHT22;14521;48.148;-1.656;2022-08-06T05:01:16;25.70;64.20
26964;DHT22;14521;48.148;-1.656;2022-08-06T05:04:42;25.70;64.20
26964;DHT22;14521;48.148;-1.656;2022-08-06T05:08:07;25.70;64.10
26964;DHT22;14521;48.148;-1.656;2022-08-06T05:11:40;25.70;64.00
26964;DHT22;14521;48.148;-1.656;2022-08-06T05:18:58;25.70;64.00
26964;DHT22;14521;48.148;-1.656;2022-08-06T05:22:44;25.70;64.10
26964;DHT22;14521;48.148;-1.656;2022-08-06T05:26:16;25.70;64.10
26964;DHT22;14521;48.148;-1.656;2022-08-06T05:29:47;25.70;64.00
26964;DHT22;14521;48.148;-1.656;2022-08-06T05:33:27;25.70;63.90
26964;DHT22;14521;48.148;-1.656;2022-08-06T05:36:51;25.70;64.00
26964;DHT22;14521;48.148;-1.656;2022-08-06T05:40:13;25.70;64.00
26964;DHT22;14521;48.148;-1.656;2022-08-06T05:43:41;25.70;64.10
26964;DHT22;14521;48.148;-1.656;2022-08-06T05:47:32;25.70;64.10
26964;DHT22;14521;48.148;-1.656;2022-08-06T05:51:28;25.70;64.00
26964;DHT22;14521;48.148;-1.656;2022-08-06T05:59:02;25.70;63.90
26964;DHT22;14521;48.148;-1.656;2022-08-06T06:02:27;25.70;63.90
26964;DHT22;14521;48.148;-1.656;2022-08-06T06:05:57;25.70;64.10
26964;DHT22;14521;48.148;-1.656;2022-08-06T06:09:29;25.70;64.10
26964;DHT22;14521;48.148;-1.656;2022-08-06T06:13:11;25.60;64.00
26964;DHT22;14521;48.148;-1.656;2022-08-06T06:25:02;25.60;64.10
26964;DHT22;14521;48.148;-1.656;2022-08-06T06:28:58;25.70;64.20
26964;DHT22;14521;48.148;-1.656;2022-08-06T06:36:09;25.70;64.20
26964;DHT22;14521;48.148;-1.656;2022-08-06T06:39:46;25.70;64.30
26964;DHT22;14521;48.148;-1.656;2022-08-06T06:43:27;25.70;64.40
26964;DHT22;14521;48.148;-1.656;2022-08-06T06:47:33;25.70;64.40
26964;DHT22;14521;48.148;-1.656;2022-08-06T06:51:03;25.70;64.60
26964;DHT22;14521;48.148;-1.656;2022-08-06T06:54:44;25.70;64.40
26964;DHT22;14521;48.148;-1.656;2022-08-06T06:58:48;25.70;64.70
26964;DHT22;14521;48.148;-1.656;2022-08-06T07:02:24;25.70;64.70
26964;DHT22;14521;48.148;-1.656;2022-08-06T07:05:50;25.70;64.80
26964;DHT22;14521;48.148;-1.656;2022-08-06T07:09:31;25.60;64.80
26964;DHT22;14521;48.148;-1.656;2022-08-06T07:13:05;25.60;65.00
26964;DHT22;14521;48.148;-1.656;2022-08-06T07:16:37;25.60;65.00
26964;DHT22;14521;48.148;-1.656;2022-08-06T07:20:05;25.60;65.00
26964;DHT22;14521;48.148;-1.656;2022-08-06T07:23:30;25.70;65.00
26964;DHT22;14521;48.148;-1.656;2022-08-06T07:27:13;25.70;65.10
26964;DHT22;14521;48.148;-1.656;2022-08-06T07:30:58;25.70;65.10
26964;DHT22;14521;48.148;-1.656;2022-08-06T07:34:28;25.70;65.00
26964;DHT22;14521;48.148;-1.656;2022-08-06T07:38:00;25.70;65.00
26964;DHT22;14521;48.148;-1.656;2022-08-06T07:41:25;25.70;65.00
26964;DHT22;14521;48.148;-1.656;2022-08-06T07:45:09;25.80;65.00
26964;DHT22;14521;48.148;-1.656;2022-08-06T07:48:42;25.70;64.90
26964;DHT22;14521;48.148;-1.656;2022-08-06T07:52:15;25.70;64.90
26964;DHT22;14521;48.148;-1.656;2022-08-06T07:55:42;25.70;64.70
26964;DHT22;14521;48.148;-1.656;2022-08-06T07:59:08;25.70;64.80
26964;DHT22;14521;48.148;-1.656;2022-08-06T08:02:36;25.70;64.70
26964;DHT22;14521;48.148;-1.656;2022-08-06T08:06:04;25.70;64.80
26964;DHT22;14521;48.148;-1.656;2022-08-06T08:09:45;25.70;64.70
26964;DHT22;14521;48.148;-1.656;2022-08-06T08:13:24;25.70;64.60
26964;DHT22;14521;48.148;-1.656;2022-08-06T08:17:05;25.70;64.70
26964;DHT22;14521;48.148;-1.656;2022-08-06T08:20:29;25.70;64.60
26964;DHT22;14521;48.148;-1.656;2022-08-06T08:23:55;25.80;64.70
26964;DHT22;14521;48.148;-1.656;2022-08-06T08:27:18;25.70;64.50
26964;DHT22;14521;48.148;-1.656;2022-08-06T08:30:58;25.70;64.40
26964;DHT22;14521;48.148;-1.656;2022-08-06T08:34:42;25.70;64.20
26964;DHT22;14521;48.148;-1.656;2022-08-06T08:38:05;25.80;64.20
26964;DHT22;14521;48.148;-1.656;2022-08-06T08:41:37;25.70;64.20
26964;DHT22;14521;48.148;-1.656;2022-08-06T08:45:12;25.80;64.10
26964;DHT22;14521;48.148;-1.656;2022-08-06T08:48:38;25.80;64.20
26964;DHT22;14521;48.148;-1.656;2022-08-06T08:52:09;25.70;64.00
26964;DHT22;14521;48.148;-1.656;2022-08-06T08:55:40;25.80;63.90
26964;DHT22;14521;48.148;-1.656;2022-08-06T08:59:22;25.80;64.00
26964;DHT22;14521;48.148;-1.656;2022-08-06T09:03:05;25.80;63.90
26964;DHT22;14521;48.148;-1.656;2022-08-06T09:06:34;25.80;64.00
26964;DHT22;14521;48.148;-1.656;2022-08-06T09:10:01;25.80;63.80
26964;DHT22;14521;48.148;-1.656;2022-08-06T09:13:26;25.80;63.80
26964;DHT22;14521;48.148;-1.656;2022-08-06T09:17:08;25.80;63.90
26964;DHT22;14521;48.148;-1.656;2022-08-06T09:20:34;25.80;63.70
26964;DHT22;14521;48.148;-1.656;2022-08-06T09:23:57;25.80;63.70
26964;DHT22;14521;48.148;-1.656;2022-08-06T09:27:33;25.80;63.70
26964;DHT22;14521;48.148;-1.656;2022-08-06T09:31:17;25.80;63.60
26964;DHT22;14521;48.148;-1.656;2022-08-06T09:34:47;25.80;63.40
26964;DHT22;14521;48.148;-1.656;2022-08-06T09:38:13;25.80;63.40
26964;DHT22;14521;48.148;-1.656;2022-08-06T09:41:46;25.80;63.10
26964;DHT22;14521;48.148;-1.656;2022-08-06T09:45:11;25.80;63.20
26964;DHT22;14521;48.148;-1.656;2022-08-06T09:48:58;25.80;63.10
26964;DHT22;14521;48.148;-1.656;2022-08-06T09:52:40;25.80;62.90
26964;DHT22;14521;48.148;-1.656;2022-08-06T09:56:15;25.80;62.80
26964;DHT22;14521;48.148;-1.656;2022-08-06T09:59:43;25.90;63.00
26964;DHT22;14521;48.148;-1.656;2022-08-06T10:03:11;25.80;62.60
26964;DHT22;14521;48.148;-1.656;2022-08-06T10:06:55;25.90;62.60
26964;DHT22;14521;48.148;-1.656;2022-08-06T10:10:18;25.80;62.40
26964;DHT22;14521;48.148;-1.656;2022-08-06T10:14:01;25.80;62.60
26964;DHT22;14521;48.148;-1.656;2022-08-06T10:17:26;25.90;62.50
26964;DHT22;14521;48.148;-1.656;2022-08-06T10:21:10;25.80;62.40
26964;DHT22;14521;48.148;-1.656;2022-08-06T10:24:41;25.80;62.10
26964;DHT22;14521;48.148;-1.656;2022-08-06T10:28:11;25.90;62.40
26964;DHT22;14521;48.148;-1.656;2022-08-06T10:31:36;25.80;62.10
26964;DHT22;14521;48.148;-1.656;2022-08-06T10:35:02;25.80;62.00
26964;DHT22;14521;48.148;-1.656;2022-08-06T10:38:37;25.80;61.90
26964;DHT22;14521;48.148;-1.656;2022-08-06T10:42:14;25.90;61.90
26964;DHT22;14521;48.148;-1.656;2022-08-06T10:45:43;25.90;62.00
26964;DHT22;14521;48.148;-1.656;2022-08-06T10:49:10;25.90;61.40
26964;DHT22;14521;48.148;-1.656;2022-08-06T10:52:53;25.90;61.20
26964;DHT22;14521;48.148;-1.656;2022-08-06T10:56:17;25.90;61.40
26964;DHT22;14521;48.148;-1.656;2022-08-06T10:59:50;25.90;61.30
26964;DHT22;14521;48.148;-1.656;2022-08-06T11:03:17;25.90;61.10
26964;DHT22;14521;48.148;-1.656;2022-08-06T11:14:14;25.90;60.60
26964;DHT22;14521;48.148;-1.656;2022-08-06T11:17:47;25.90;60.70
26964;DHT22;14521;48.148;-1.656;2022-08-06T11:29:00;25.90;60.40
26964;DHT22;14521;48.148;-1.656;2022-08-06T11:32:47;25.90;60.30
26964;DHT22;14521;48.148;-1.656;2022-08-06T11:36:24;25.90;60.10
26964;DHT22;14521;48.148;-1.656;2022-08-06T11:40:05;25.90;60.10
26964;DHT22;14521;48.148;-1.656;2022-08-06T11:47:22;25.90;60.20
26964;DHT22;14521;48.148;-1.656;2022-08-06T11:55:06;25.90;60.30
26964;DHT22;14521;48.148;-1.656;2022-08-06T11:58:29;25.90;60.20
26964;DHT22;14521;48.148;-1.656;2022-08-06T12:01:52;25.90;60.30
26964;DHT22;14521;48.148;-1.656;2022-08-06T12:08:40;25.90;60.30
26964;DHT22;14521;48.148;-1.656;2022-08-06T12:16:25;25.90;60.40
26964;DHT22;14521;48.148;-1.656;2022-08-06T12:19:54;26.00;60.50
26964;DHT22;14521;48.148;-1.656;2022-08-06T12:23:23;26.00;60.40
26964;DHT22;14521;48.148;-1.656;2022-08-06T12:27:06;26.00;60.60
26964;DHT22;14521;48.148;-1.656;2022-08-06T12:30:42;26.00;60.60
26964;DHT22;14521;48.148;-1.656;2022-08-06T12:34:23;25.90;60.40
26964;DHT22;14521;48.148;-1.656;2022-08-06T12:37:49;26.00;60.70
26964;DHT22;14521;48.148;-1.656;2022-08-06T12:41:12;26.00;60.20
26964;DHT22;14521;48.148;-1.656;2022-08-06T12:44:54;26.00;60.40
26964;DHT22;14521;48.148;-1.656;2022-08-06T12:48:20;26.00;60.70
26964;DHT22;14521;48.148;-1.656;2022-08-06T12:51:47;26.00;60.50
26964;DHT22;14521;48.148;-1.656;2022-08-06T12:55:18;26.00;60.60
26964;DHT22;14521;48.148;-1.656;2022-08-06T12:58:44;26.00;60.60
26964;DHT22;14521;48.148;-1.656;2022-08-06T13:02:07;26.00;60.80
26964;DHT22;14521;48.148;-1.656;2022-08-06T13:05:48;26.00;60.70
26964;DHT22;14521;48.148;-1.656;2022-08-06T13:09:11;26.00;60.50
26964;DHT22;14521;48.148;-1.656;2022-08-06T13:12:33;26.00;60.70
26964;DHT22;14521;48.148;-1.656;2022-08-06T13:16:16;26.00;60.60
26964;DHT22;14521;48.148;-1.656;2022-08-06T13:19:53;26.00;60.60
26964;DHT22;14521;48.148;-1.656;2022-08-06T13:23:45;26.00;60.50
26964;DHT22;14521;48.148;-1.656;2022-08-06T13:27:10;26.00;60.50
26964;DHT22;14521;48.148;-1.656;2022-08-06T13:30:32;26.00;60.60
26964;DHT22;14521;48.148;-1.656;2022-08-06T13:34:04;26.00;60.50
26964;DHT22;14521;48.148;-1.656;2022-08-06T13:37:52;26.00;60.40
26964;DHT22;14521;48.148;-1.656;2022-08-06T13:41:34;26.00;60.50
26964;DHT22;14521;48.148;-1.656;2022-08-06T13:44:58;26.00;60.60
26964;DHT22;14521;48.148;-1.656;2022-08-06T13:48:21;26.00;60.60
26964;DHT22;14521;48.148;-1.656;2022-08-06T13:51:44;26.00;60.70
26964;DHT22;14521;48.148;-1.656;2022-08-06T13:55:22;26.00;60.60
26964;DHT22;14521;48.148;-1.656;2022-08-06T13:58:47;26.00;60.50
26964;DHT22;14521;48.148;-1.656;2022-08-06T14:02:10;26.00;60.50
26964;DHT22;14521;48.148;-1.656;2022-08-06T14:05:33;26.10;60.40
26964;DHT22;14521;48.148;-1.656;2022-08-06T14:09:00;26.00;60.40
26964;DHT22;14521;48.148;-1.656;2022-08-06T14:12:23;26.00;60.50
26964;DHT22;14521;48.148;-1.656;2022-08-06T14:15:51;26.00;60.40
26964;DHT22;14521;48.148;-1.656;2022-08-06T14:19:15;26.10;60.60
26964;DHT22;14521;48.148;-1.656;2022-08-06T14:22:57;26.10;60.50
26964;DHT22;14521;48.148;-1.656;2022-08-06T14:26:21;26.10;60.50
26964;DHT22;14521;48.148;-1.656;2022-08-06T14:29:48;26.10;60.50
26964;DHT22;14521;48.148;-1.656;2022-08-06T14:33:30;26.10;60.50
26964;DHT22;14521;48.148;-1.656;2022-08-06T14:36:59;26.10;60.50
26964;DHT22;14521;48.148;-1.656;2022-08-06T14:40:24;26.10;60.50
26964;DHT22;14521;48.148;-1.656;2022-08-06T14:44:23;26.10;60.50
26964;DHT22;14521;48.148;-1.656;2022-08-06T14:48:07;26.10;60.20
26964;DHT22;14521;48.148;-1.656;2022-08-06T14:51:30;26.10;60.20
26964;DHT22;14521;48.148;-1.656;2022-08-06T14:55:12;26.10;60.30
26964;DHT22;14521;48.148;-1.656;2022-08-06T14:58:43;26.10;60.20
26964;DHT22;14521;48.148;-1.656;2022-08-06T15:02:06;26.10;60.20
26964;DHT22;14521;48.148;-1.656;2022-08-06T15:05:29;26.10;59.90
26964;DHT22;14521;48.148;-1.656;2022-08-06T15:09:11;26.10;60.00
26964;DHT22;14521;48.148;-1.656;2022-08-06T15:12:35;26.10;60.10
26964;DHT22;14521;48.148;-1.656;2022-08-06T15:16:10;26.10;59.80
26964;DHT22;14521;48.148;-1.656;2022-08-06T15:19:52;26.10;60.10
26964;DHT22;14521;48.148;-1.656;2022-08-06T15:23:16;26.10;59.80
26964;DHT22;14521;48.148;-1.656;2022-08-06T15:26:41;26.10;59.70
26964;DHT22;14521;48.148;-1.656;2022-08-06T15:30:11;26.10;59.60
26964;DHT22;14521;48.148;-1.656;2022-08-06T15:33:34;26.10;59.60
26964;DHT22;14521;48.148;-1.656;2022-08-06T15:36:56;26.10;59.70
26964;DHT22;14521;48.148;-1.656;2022-08-06T15:40:24;26.10;59.50
26964;DHT22;14521;48.148;-1.656;2022-08-06T15:43:51;26.10;59.50
26964;DHT22;14521;48.148;-1.656;2022-08-06T15:47:13;26.10;59.60
26964;DHT22;14521;48.148;-1.656;2022-08-06T15:50:36;26.10;59.50
26964;DHT22;14521;48.148;-1.656;2022-08-06T15:54:23;26.10;59.40
26964;DHT22;14521;48.148;-1.656;2022-08-06T15:57:47;26.10;59.40
26964;DHT22;14521;48.148;-1.656;2022-08-06T16:01:28;26.10;59.30
26964;DHT22;14521;48.148;-1.656;2022-08-06T16:05:10;26.20;59.30
26964;DHT22;14521;48.148;-1.656;2022-08-06T16:08:32;26.10;59.40
26964;DHT22;14521;48.148;-1.656;2022-08-06T16:12:07;26.10;59.30
26964;DHT22;14521;48.148;-1.656;2022-08-06T16:15:30;26.20;59.30
26964;DHT22;14521;48.148;-1.656;2022-08-06T16:18:59;26.10;59.20
26964;DHT22;14521;48.148;-1.656;2022-08-06T16:22:23;26.20;59.10
26964;DHT22;14521;48.148;-1.656;2022-08-06T16:25:50;26.20;58.90
26964;DHT22;14521;48.148;-1.656;2022-08-06T16:29:32;26.20;59.00
26964;DHT22;14521;48.148;-1.656;2022-08-06T16:32:56;26.10;59.00
26964;DHT22;14521;48.148;-1.656;2022-08-06T16:36:18;26.20;59.30
26964;DHT22;14521;48.148;-1.656;2022-08-06T16:39:54;26.20;59.30
26964;DHT22;14521;48.148;-1.656;2022-08-06T16:43:22;26.20;59.10
26964;DHT22;14521;48.148;-1.656;2022-08-06T16:46:47;26.20;59.10
26964;DHT22;14521;48.148;-1.656;2022-08-06T16:50:09;26.20;59.30
26964;DHT22;14521;48.148;-1.656;2022-08-06T16:53:46;26.20;59.40
26964;DHT22;14521;48.148;-1.656;2022-08-06T16:57:28;26.20;59.10
26964;DHT22;14521;48.148;-1.656;2022-08-06T17:00:59;26.20;59.00
26964;DHT22;14521;48.148;-1.656;2022-08-06T17:04:41;26.20;59.00
26964;DHT22;14521;48.148;-1.656;2022-08-06T17:08:05;26.20;59.10
26964;DHT22;14521;48.148;-1.656;2022-08-06T17:11:28;26.20;58.90
26964;DHT22;14521;48.148;-1.656;2022-08-06T17:15:08;26.20;58.80
26964;DHT22;14521;48.148;-1.656;2022-08-06T17:18:37;26.20;58.80
26964;DHT22;14521;48.148;-1.656;2022-08-06T17:21:59;26.20;58.60
26964;DHT22;14521;48.148;-1.656;2022-08-06T17:25:22;26.20;58.60
26964;DHT22;14521;48.148;-1.656;2022-08-06T17:28:44;26.20;59.10
26964;DHT22;14521;48.148;-1.656;2022-08-06T17:32:07;26.20;58.80
26964;DHT22;14521;48.148;-1.656;2022-08-06T17:35:49;26.20;58.90
26964;DHT22;14521;48.148;-1.656;2022-08-06T17:39:31;26.20;58.90
26964;DHT22;14521;48.148;-1.656;2022-08-06T17:43:03;26.20;58.90
26964;DHT22;14521;48.148;-1.656;2022-08-06T17:46:44;26.20;59.30
26964;DHT22;14521;48.148;-1.656;2022-08-06T17:50:10;26.20;58.90
26964;DHT22;14521;48.148;-1.656;2022-08-06T17:53:37;26.20;59.00
26964;DHT22;14521;48.148;-1.656;2022-08-06T17:57:15;26.20;58.80
26964;DHT22;14521;48.148;-1.656;2022-08-06T18:00:57;26.20;58.80
26964;DHT22;14521;48.148;-1.656;2022-08-06T18:04:31;26.20;59.10
26964;DHT22;14521;48.148;-1.656;2022-08-06T18:07:56;26.20;59.10
26964;DHT22;14521;48.148;-1.656;2022-08-06T18:11:36;26.20;58.90
26964;DHT22;14521;48.148;-1.656;2022-08-06T18:14:59;26.20;58.90
26964;DHT22;14521;48.148;-1.656;2022-08-06T18:18:22;26.20;59.30
26964;DHT22;14521;48.148;-1.656;2022-08-06T18:21:45;26.20;59.00
26964;DHT22;14521;48.148;-1.656;2022-08-06T18:25:12;26.20;58.80
26964;DHT22;14521;48.148;-1.656;2022-08-06T18:28:36;26.20;58.70
26964;DHT22;14521;48.148;-1.656;2022-08-06T18:32:10;26.20;58.60
26964;DHT22;14521;48.148;-1.656;2022-08-06T18:35:34;26.20;58.80
26964;DHT22;14521;48.148;-1.656;2022-08-06T18:39:16;26.20;58.60
26964;DHT22;14521;48.148;-1.656;2022-08-06T18:42:59;26.20;59.10
26964;DHT22;14521;48.148;-1.656;2022-08-06T18:46:25;26.20;58.70
26964;DHT22;14521;48.148;-1.656;2022-08-06T18:50:09;26.20;58.60
26964;DHT22;14521;48.148;-1.656;2022-08-06T18:53:33;26.20;58.70
26964;DHT22;14521;48.148;-1.656;2022-08-06T18:57:15;26.20;58.90
26964;DHT22;14521;48.148;-1.656;2022-08-06T19:00:50;26.20;59.50
26964;DHT22;14521;48.148;-1.656;2022-08-06T19:04:14;26.20;58.80
26964;DHT22;14521;48.148;-1.656;2022-08-06T19:07:40;26.20;59.10
26964;DHT22;14521;48.148;-1.656;2022-08-06T19:11:11;26.20;58.90
26964;DHT22;14521;48.148;-1.656;2022-08-06T19:14:36;26.20;59.30
26964;DHT22;14521;48.148;-1.656;2022-08-06T19:18:05;26.20;58.90
26964;DHT22;14521;48.148;-1.656;2022-08-06T19:21:39;26.20;58.90
26964;DHT22;14521;48.148;-1.656;2022-08-06T19:25:02;26.20;58.90
26964;DHT22;14521;48.148;-1.656;2022-08-06T19:28:31;26.20;59.40
26964;DHT22;14521;48.148;-1.656;2022-08-06T19:32:11;26.20;59.30
26964;DHT22;14521;48.148;-1.656;2022-08-06T19:35:49;26.20;59.40
26964;DHT22;14521;48.148;-1.656;2022-08-06T19:39:32;26.20;59.60
26964;DHT22;14521;48.148;-1.656;2022-08-06T19:43:15;26.20;59.70
26964;DHT22;14521;48.148;-1.656;2022-08-06T19:46:58;26.20;59.80
26964;DHT22;14521;48.148;-1.656;2022-08-06T19:50:21;26.20;59.80
26964;DHT22;14521;48.148;-1.656;2022-08-06T19:53:49;26.20;59.80
26964;DHT22;14521;48.148;-1.656;2022-08-06T19:57:15;26.20;59.90
26964;DHT22;14521;48.148;-1.656;2022-08-06T20:00:38;26.20;60.00
26964;DHT22;14521;48.148;-1.656;2022-08-06T20:04:20;26.20;59.90
26964;DHT22;14521;48.148;-1.656;2022-08-06T20:07:42;26.20;60.00
26964;DHT22;14521;48.148;-1.656;2022-08-06T20:11:24;26.20;60.00
26964;DHT22;14521;48.148;-1.656;2022-08-06T20:15:11;26.20;60.10
26964;DHT22;14521;48.148;-1.656;2022-08-06T20:18:34;26.20;60.20
26964;DHT22;14521;48.148;-1.656;2022-08-06T20:21:57;26.20;60.20
26964;DHT22;14521;48.148;-1.656;2022-08-06T20:25:19;26.20;60.20
26964;DHT22;14521;48.148;-1.656;2022-08-06T20:28:45;26.20;60.30
26964;DHT22;14521;48.148;-1.656;2022-08-06T20:32:27;26.20;60.50
26964;DHT22;14521;48.148;-1.656;2022-08-06T20:35:53;26.20;60.50
26964;DHT22;14521;48.148;-1.656;2022-08-06T20:39:22;26.20;60.60
26964;DHT22;14521;48.148;-1.656;2022-08-06T20:42:47;26.20;60.50
26964;DHT22;14521;48.148;-1.656;2022-08-06T20:46:09;26.20;60.40
26964;DHT22;14521;48.148;-1.656;2022-08-06T20:49:43;26.20;60.60
26964;DHT22;14521;48.148;-1.656;2022-08-06T20:53:25;26.20;60.50
26964;DHT22;14521;48.148;-1.656;2022-08-06T20:56:53;26.20;60.60
26964;DHT22;14521;48.148;-1.656;2022-08-06T21:00:18;26.20;60.90
26964;DHT22;14521;48.148;-1.656;2022-08-06T21:03:45;26.20;60.60
26964;DHT22;14521;48.148;-1.656;2022-08-06T21:07:27;26.20;60.70
26964;DHT22;14521;48.148;-1.656;2022-08-06T21:10:59;26.10;60.60
26964;DHT22;14521;48.148;-1.656;2022-08-06T21:14:22;26.10;60.80
26964;DHT22;14521;48.148;-1.656;2022-08-06T21:17:51;26.10;61.00
26964;DHT22;14521;48.148;-1.656;2022-08-06T21:21:17;26.10;61.30
26964;DHT22;14521;48.148;-1.656;2022-08-06T21:24:40;26.10;61.00
26964;DHT22;14521;48.148;-1.656;2022-08-06T21:28:02;26.10;61.30
26964;DHT22;14521;48.148;-1.656;2022-08-06T21:31:34;26.20;61.50
26964;DHT22;14521;48.148;-1.656;2022-08-06T21:34:58;26.10;61.20
26964;DHT22;14521;48.148;-1.656;2022-08-06T21:38:20;26.10;61.20
26964;DHT22;14521;48.148;-1.656;2022-08-06T21:41:47;26.10;61.40
26964;DHT22;14521;48.148;-1.656;2022-08-06T21:45:25;26.10;61.20
26964;DHT22;14521;48.148;-1.656;2022-08-06T21:49:07;26.10;61.50
26964;DHT22;14521;48.148;-1.656;2022-08-06T21:52:29;26.10;61.50
26964;DHT22;14521;48.148;-1.656;2022-08-06T21:55:54;26.10;61.50
26964;DHT22;14521;48.148;-1.656;2022-08-06T21:59:36;26.10;61.60
26964;DHT22;14521;48.148;-1.656;2022-08-06T22:03:13;26.10;61.70
26964;DHT22;14521;48.148;-1.656;2022-08-06T22:06:56;26.10;61.70
26964;DHT22;14521;48.148;-1.656;2022-08-06T22:10:19;26.10;61.90
26964;DHT22;14521;48.148;-1.656;2022-08-06T22:13:53;26.10;61.70
26964;DHT22;14521;48.148;-1.656;2022-08-06T22:17:22;26.10;61.80
26964;DHT22;14521;48.148;-1.656;2022-08-06T22:21:05;26.10;61.70
26964;DHT22;14521;48.148;-1.656;2022-08-06T22:24:32;26.10;61.80
26964;DHT22;14521;48.148;-1.656;2022-08-06T22:27:54;26.10;61.70
26964;DHT22;14521;48.148;-1.656;2022-08-06T22:31:23;26.10;61.90
26964;DHT22;14521;48.148;-1.656;2022-08-06T22:34:51;26.10;62.00
26964;DHT22;14521;48.148;-1.656;2022-08-06T22:38:14;26.10;61.90
26964;DHT22;14521;48.148;-1.656;2022-08-06T22:41:44;26.00;61.70
26964;DHT22;14521;48.148;-1.656;2022-08-06T22:45:26;26.00;62.00
26964;DHT22;14521;48.148;-1.656;2022-08-06T22:49:09;26.00;61.90
26964;DHT22;14521;48.148;-1.656;2022-08-06T22:52:34;26.00;61.80
26964;DHT22;14521;48.148;-1.656;2022-08-06T22:56:16;26.00;61.80
26964;DHT22;14521;48.148;-1.656;2022-08-06T22:59:39;26.00;62.00
26964;DHT22;14521;48.148;-1.656;2022-08-06T23:03:21;26.00;62.00